Time;durP1;ratioP1;P1;durP2;ratioP2;P2;SDS_P1;SDS_P2;PMS_P1;PMS_P2;Temp;Humidity;BMP_temperature;BMP_pressure;BME280_temperature;BME280_humidity;BME280_pressure;Samples;Min_cycle;Max_cycle;Signal;HPM_P1;HPM_P2
2023/04/07 00:02:17;;;;;;;14.75;8.02;;;8.80;62.00;;;;;;5073025;28;20163;-68
2023/04/07 00:04:42;;;;;;;14.90;8.48;;;8.60;62.40;;;;;;5072888;28;20033;-69
2023/04/07 00:07:08;;;;;;;13.90;7.95;;;8.60;62.70;;;;;;5072506;28;20086;-69
2023/04/07 00:09:34;;;;;;;17.27;9.02;;;8.60;63.00;;;;;;5073351;28;20017;-68
2023/04/07 00:12:02;;;;;;;19.30;9.45;;;8.60;63.00;;;;;;5072482;28;20535;-67
2023/04/07 00:14:28;;;;;;;17.45;8.88;;;8.50;64.10;;;;;;5072287;28;20470;-67
2023/04/07 00:16:54;;;;;;;16.73;8.52;;;8.50;63.50;;;;;;5072626;28;20063;-68
2023/04/07 00:19:19;;;;;;;18.58;9.00;;;8.50;63.80;;;;;;5072329;28;20512;-68
2023/04/07 00:21:45;;;;;;;16.10;8.68;;;8.40;64.00;;;;;;5071217;28;20353;-68
2023/04/07 00:24:11;;;;;;;21.77;8.50;;;8.40;63.80;;;;;;5072670;28;20051;-68
2023/04/07 00:26:36;;;;;;;14.80;7.95;;;8.40;63.60;;;;;;5072176;28;20028;-67
2023/04/07 00:29:02;;;;;;;17.00;7.65;;;8.30;63.70;;;;;;5072281;28;20323;-66
2023/04/07 00:31:28;;;;;;;22.67;8.35;;;8.30;64.10;;;;;;5072044;28;20128;-67
2023/04/07 00:33:54;;;;;;;19.15;8.02;;;8.20;64.30;;;;;;5071969;28;20105;-67
2023/04/07 00:36:20;;;;;;;15.90;8.45;;;8.20;63.80;;;;;;5071246;28;20062;-68
2023/04/07 00:38:46;;;;;;;17.88;8.52;;;8.10;64.30;;;;;;5072055;28;20451;-67
2023/04/07 00:41:11;;;;;;;19.73;8.68;;;8.10;65.00;;;;;;5071873;28;20032;-68
2023/04/07 00:43:37;;;;;;;17.17;8.00;;;8.00;65.20;;;;;;5071795;28;20478;-68
2023/04/07 00:46:03;;;;;;;14.48;8.85;;;8.10;65.00;;;;;;5071886;28;20093;-68
2023/04/07 00:48:29;;;;;;;17.20;7.72;;;8.10;65.30;;;;;;5071296;28;20422;-68
2023/04/07 00:50:55;;;;;;;14.05;8.55;;;8.00;66.00;;;;;;5071966;28;20604;-69
2023/04/07 00:53:21;;;;;;;15.27;8.00;;;7.90;67.00;;;;;;5071585;28;20119;-68
2023/04/07 00:55:47;;;;;;;16.05;8.23;;;7.80;67.70;;;;;;5071482;28;20036;-68
2023/04/07 00:58:12;;;;;;;16.35;8.35;;;7.80;66.70;;;;;;5071691;28;20043;-69
2023/04/07 01:01:03;;;;;;;16.55;8.57;;;7.80;65.70;;;;;;5071839;28;20040;-68
2023/04/07 01:04:00;;;;;;;17.83;7.47;;;7.80;65.20;;;;;;5071455;28;20051;-67
2023/04/07 01:06:33;;;;;;;15.73;8.00;;;7.80;65.70;;;;;;5071345;28;20043;-67
2023/04/07 01:09:06;;;;;;;14.75;8.20;;;7.80;65.80;;;;;;5071465;28;20036;-67
2023/04/07 01:12:08;;;;;;;19.08;7.88;;;7.80;65.50;;;;;;5071264;28;20135;-68
2023/04/07 01:14:41;;;;;;;17.40;8.65;;;7.70;65.50;;;;;;5071027;28;20037;-67
2023/04/07 01:17:10;;;;;;;17.95;8.40;;;7.80;65.30;;;;;;5071168;28;20124;-68
2023/04/07 01:19:57;;;;;;;15.93;7.90;;;7.80;65.40;;;;;;5070799;28;20126;-68
2023/04/07 01:22:32;;;;;;;13.70;7.70;;;7.70;65.70;;;;;;5070902;28;20020;-67
2023/04/07 01:25:21;;;;;;;15.20;8.05;;;7.70;65.80;;;;;;5070770;28;20047;-68
2023/04/07 01:27:58;;;;;;;12.45;7.35;;;7.70;66.30;;;;;;5071113;28;20101;-68
2023/04/07 01:30:27;;;;;;;13.85;7.70;;;7.70;65.70;;;;;;5071104;28;20392;-68
2023/04/07 01:32:55;;;;;;;15.85;8.35;;;7.60;66.20;;;;;;5070608;28;20455;-68
2023/04/07 01:35:22;;;;;;;19.23;8.30;;;7.60;65.60;;;;;;5074846;28;20036;-68
2023/04/07 01:37:49;;;;;;;14.63;7.93;;;7.70;66.00;;;;;;5091204;28;20467;-68
2023/04/07 01:40:17;;;;;;;15.27;8.23;;;7.50;66.20;;;;;;5090843;28;20063;-67
2023/04/07 01:42:43;;;;;;;16.45;8.13;;;7.60;65.90;;;;;;5090832;28;20107;-70
2023/04/07 01:45:10;;;;;;;15.45;8.23;;;7.50;66.50;;;;;;5091907;28;20055;-69
2023/04/07 01:47:36;;;;;;;12.90;7.95;;;7.50;67.40;;;;;;5090709;28;20081;-68
2023/04/07 01:50:04;;;;;;;12.48;8.20;;;7.40;68.20;;;;;;5090667;28;20055;-69
2023/04/07 01:52:32;;;;;;;16.67;7.22;;;7.40;68.40;;;;;;5090694;28;20461;-69
2023/04/07 01:54:57;;;;;;;13.63;8.30;;;7.30;67.70;;;;;;5090579;28;20028;-69
2023/04/07 01:57:23;;;;;;;17.77;8.50;;;7.40;68.00;;;;;;5091023;28;20023;-68
2023/04/07 01:59:49;;;;;;;17.60;8.10;;;7.30;67.60;;;;;;5090491;28;20081;-68
2023/04/07 02:02:14;;;;;;;14.68;8.38;;;7.30;67.30;;;;;;5090768;28;20028;-68
2023/04/07 02:04:59;;;;;;;13.52;8.38;;;7.40;67.50;;;;;;5090550;28;20060;-69
2023/04/07 02:07:54;;;;;;;18.52;8.27;;;7.30;67.30;;;;;;5090212;28;20028;-70
2023/04/07 02:10:23;;;;;;;17.15;8.60;;;7.20;67.60;;;;;;5090587;28;20032;-70
2023/04/07 02:12:48;;;;;;;16.67;7.88;;;7.20;67.90;;;;;;5090489;28;20028;-69
2023/04/07 02:15:16;;;;;;;11.93;7.57;;;7.20;68.00;;;;;;5090966;28;20454;-69
2023/04/07 02:17:46;;;;;;;15.75;8.43;;;7.10;69.10;;;;;;5089606;28;20035;-69
2023/04/07 02:20:13;;;;;;;21.75;8.43;;;7.00;70.50;;;;;;5090360;28;20394;-68
2023/04/07 02:22:40;;;;;;;17.05;7.65;;;7.10;69.90;;;;;;5090730;28;20094;-68
2023/04/07 02:25:22;;;;;;;17.25;8.55;;;7.10;69.90;;;;;;5090480;28;20184;-68
2023/04/07 02:27:47;;;;;;;14.07;8.50;;;7.00;69.70;;;;;;5090393;28;20031;-69
2023/04/07 02:30:13;;;;;;;13.70;8.48;;;7.00;69.70;;;;;;5090889;28;20040;-69
2023/04/07 02:32:40;;;;;;;14.00;7.32;;;7.00;69.20;;;;;;5090469;28;20036;-69
2023/04/07 02:35:06;;;;;;;14.10;8.57;;;7.10;69.30;;;;;;5090191;28;20089;-70
2023/04/07 02:37:31;;;;;;;15.23;7.70;;;7.00;70.00;;;;;;5090456;28;20122;-69
2023/04/07 02:39:57;;;;;;;16.50;8.57;;;6.90;69.90;;;;;;5090359;28;20020;-69
2023/04/07 02:42:23;;;;;;;16.83;8.77;;;7.00;69.80;;;;;;5091038;28;20310;-69
2023/04/07 02:44:49;;;;;;;19.17;9.20;;;6.90;69.80;;;;;;5090577;28;20168;-69
2023/04/07 02:47:15;;;;;;;16.63;8.27;;;6.90;69.80;;;;;;5090361;28;20028;-69
2023/04/07 02:49:41;;;;;;;17.70;8.95;;;6.90;70.10;;;;;;5090496;28;20040;-70
2023/04/07 02:52:07;;;;;;;19.40;9.07;;;6.90;70.70;;;;;;5090163;28;20038;-70
2023/04/07 02:54:32;;;;;;;19.83;9.10;;;6.80;71.00;;;;;;5090624;28;20024;-69
2023/04/07 02:56:58;;;;;;;16.65;8.27;;;6.80;71.00;;;;;;5089735;28;20067;-68
2023/04/07 02:59:24;;;;;;;14.50;8.57;;;6.90;70.50;;;;;;5090406;28;20588;-69
2023/04/07 03:01:49;;;;;;;16.80;9.25;;;6.90;70.30;;;;;;5090319;28;20039;-69
2023/04/07 03:04:15;;;;;;;13.13;8.32;;;6.80;71.00;;;;;;5090145;28;20031;-70
2023/04/07 03:06:41;;;;;;;15.25;9.32;;;6.70;72.00;;;;;;5089018;28;20024;-69
2023/04/07 03:09:09;;;;;;;15.38;8.80;;;6.60;72.50;;;;;;5091099;28;20035;-70
2023/04/07 03:11:35;;;;;;;16.40;8.48;;;6.70;72.10;;;;;;5091179;28;20028;-69
2023/04/07 03:14:01;;;;;;;14.57;7.78;;;6.80;71.30;;;;;;5093086;28;20489;-69
2023/04/07 03:16:26;;;;;;;14.70;9.25;;;6.80;72.00;;;;;;5093552;28;20093;-70
2023/04/07 03:18:52;;;;;;;15.35;8.90;;;6.60;73.10;;;;;;5093958;28;20020;-67
2023/04/07 03:21:17;;;;;;;19.45;9.57;;;6.60;73.40;;;;;;5094428;28;20096;-68
2023/04/07 03:23:43;;;;;;;15.57;9.00;;;6.60;73.10;;;;;;5093658;28;20376;-68
2023/04/07 03:26:09;;;;;;;15.30;8.68;;;6.70;72.50;;;;;;5093768;28;20059;-69
2023/04/07 03:28:35;;;;;;;16.13;8.75;;;6.70;71.90;;;;;;5093800;28;20369;-69
2023/04/07 03:31:01;;;;;;;19.13;10.07;;;6.50;73.10;;;;;;5093216;28;20464;-69
2023/04/07 03:33:27;;;;;;;17.63;9.65;;;6.40;73.80;;;;;;5093791;28;20089;-68
2023/04/07 03:35:52;;;;;;;15.32;9.75;;;6.40;74.10;;;;;;5093205;28;20393;-68
2023/04/07 03:38:18;;;;;;;15.02;9.00;;;6.40;74.40;;;;;;5093275;28;20035;-68
2023/04/07 03:40:43;;;;;;;16.65;10.07;;;6.40;74.90;;;;;;5093198;28;20043;-68
2023/04/07 03:43:12;;;;;;;18.33;9.52;;;6.40;75.00;;;;;;5093273;28;20039;-69
2023/04/07 03:45:38;;;;;;;14.50;8.93;;;6.40;74.90;;;;;;5093558;28;20031;-69
2023/04/07 03:48:04;;;;;;;22.70;9.80;;;6.40;74.80;;;;;;5093489;28;20032;-69
2023/04/07 03:50:30;;;;;;;16.90;9.52;;;6.40;74.10;;;;;;5093202;28;20492;-67
2023/04/07 03:52:56;;;;;;;19.48;9.73;;;6.40;74.00;;;;;;5093139;28;20032;-68
2023/04/07 03:55:21;;;;;;;17.50;9.95;;;6.40;74.40;;;;;;5093144;28;20035;-69
2023/04/07 03:57:47;;;;;;;17.27;9.93;;;6.40;75.20;;;;;;5093454;28;20502;-68
2023/04/07 04:00:13;;;;;;;19.00;10.18;;;6.30;75.30;;;;;;5093389;28;20047;-69
2023/04/07 04:02:39;;;;;;;16.75;9.07;;;6.30;76.20;;;;;;5092916;28;20036;-68
2023/04/07 04:05:05;;;;;;;20.20;10.35;;;6.20;77.50;;;;;;5092732;28;20051;-68
2023/04/07 04:07:32;;;;;;;20.40;9.90;;;6.20;77.40;;;;;;5092756;28;20029;-67
2023/04/07 04:09:58;;;;;;;18.53;11.13;;;6.10;78.30;;;;;;5092533;28;20330;-68
2023/04/07 04:12:23;;;;;;;16.52;10.00;;;6.20;78.10;;;;;;5092973;28;20584;-67
2023/04/07 04:14:49;;;;;;;20.88;10.95;;;6.10;78.20;;;;;;5092433;28;20032;-67
2023/04/07 04:17:15;;;;;;;20.95;10.50;;;6.20;77.90;;;;;;5092503;28;20024;-67
2023/04/07 04:19:40;;;;;;;22.92;11.35;;;6.20;78.00;;;;;;5092655;28;20050;-68
2023/04/07 04:22:06;;;;;;;22.30;11.15;;;6.20;78.20;;;;;;5092447;28;20031;-68
2023/04/07 04:24:32;;;;;;;19.35;10.45;;;6.10;78.10;;;;;;5091817;28;20028;-68
2023/04/07 04:26:57;;;;;;;19.88;11.27;;;6.20;77.90;;;;;;5092508;28;20055;-68
2023/04/07 04:29:23;;;;;;;19.85;10.60;;;6.20;77.50;;;;;;5092598;28;20024;-67
2023/04/07 04:31:49;;;;;;;19.73;10.88;;;6.20;77.70;;;;;;5092275;28;20070;-68
2023/04/07 04:34:14;;;;;;;23.02;11.30;;;6.20;78.00;;;;;;5092210;28;20369;-68
2023/04/07 04:36:40;;;;;;;19.67;11.07;;;6.20;77.40;;;;;;5092968;28;20338;-68
2023/04/07 04:39:06;;;;;;;21.77;10.98;;;6.20;77.40;;;;;;5092325;28;20108;-67
2023/04/07 04:41:31;;;;;;;24.10;10.77;;;6.20;76.90;;;;;;5092189;28;20107;-67
2023/04/07 04:43:57;;;;;;;25.90;11.52;;;6.20;77.60;;;;;;5091957;28;20465;-67
2023/04/07 04:46:23;;;;;;;23.70;11.60;;;6.20;78.00;;;;;;5091944;28;20031;-67
2023/04/07 04:48:50;;;;;;;22.25;11.55;;;6.20;77.90;;;;;;5092390;28;20020;-67
2023/04/07 04:51:16;;;;;;;22.60;11.32;;;6.20;78.00;;;;;;5092830;28;20042;-68
2023/04/07 04:53:41;;;;;;;30.98;12.15;;;6.20;78.00;;;;;;5091981;28;20059;-68
2023/04/07 04:56:07;;;;;;;19.83;10.88;;;6.10;77.30;;;;;;5091736;28;20091;-68
2023/04/07 04:58:34;;;;;;;26.65;11.38;;;6.20;77.50;;;;;;5091845;28;20493;-68
2023/04/07 05:01:00;;;;;;;19.98;11.27;;;6.20;77.90;;;;;;5091617;28;20025;-68
2023/04/07 05:03:27;;;;;;;18.67;10.35;;;6.20;77.90;;;;;;5092095;28;20031;-68
2023/04/07 05:05:53;;;;;;;26.27;11.52;;;6.20;78.50;;;;;;5091737;28;20342;-68
2023/04/07 05:08:18;;;;;;;17.85;9.57;;;6.20;77.60;;;;;;5091662;28;20039;-68
2023/04/07 05:10:45;;;;;;;18.25;10.65;;;6.40;76.10;;;;;;5091512;28;20060;-68
2023/04/07 05:13:11;;;;;;;17.63;10.70;;;6.50;75.10;;;;;;5091548;28;20031;-69
2023/04/07 05:15:37;;;;;;;22.20;10.98;;;6.60;74.60;;;;;;5091740;28;20452;-70
2023/04/07 05:18:03;;;;;;;18.13;9.95;;;6.60;74.30;;;;;;5091522;28;20278;-68
2023/04/07 05:20:28;;;;;;;22.45;11.35;;;6.60;74.70;;;;;;5091500;28;20024;-70
2023/04/07 05:22:54;;;;;;;20.08;10.55;;;6.60;74.10;;;;;;5091378;28;20477;-68
2023/04/07 05:25:19;;;;;;;18.55;10.20;;;6.60;74.10;;;;;;5091263;28;20028;-69
2023/04/07 05:27:45;;;;;;;21.95;10.55;;;6.70;74.40;;;;;;5091405;28;20051;-67
2023/04/07 05:30:11;;;;;;;19.65;11.02;;;6.80;74.10;;;;;;5091359;28;20096;-69
2023/04/07 05:32:37;;;;;;;19.42;10.32;;;6.80;74.30;;;;;;5091131;28;20059;-69
2023/04/07 05:35:03;;;;;;;18.08;10.32;;;6.70;74.30;;;;;;5090568;28;20453;-69
2023/04/07 05:37:28;;;;;;;18.58;10.23;;;6.80;74.50;;;;;;5091071;28;20075;-68
2023/04/07 05:39:54;;;;;;;17.98;10.15;;;6.80;74.20;;;;;;5090743;28;20032;-69
2023/04/07 05:42:20;;;;;;;15.43;9.48;;;6.80;74.20;;;;;;5091391;28;20327;-67
2023/04/07 05:44:46;;;;;;;19.48;10.63;;;6.80;74.20;;;;;;5091015;28;20057;-69
2023/04/07 05:47:11;;;;;;;16.50;10.00;;;6.80;74.80;;;;;;5090664;28;20063;-68
2023/04/07 05:49:44;;;;;;;16.20;9.45;;;6.80;74.80;;;;;;5090999;28;20047;-70
2023/04/07 05:52:10;;;;;;;18.45;10.43;;;6.80;74.30;;;;;;5091097;28;20035;-70
2023/04/07 05:54:36;;;;;;;15.35;9.68;;;6.80;75.10;;;;;;5091569;28;20070;-68
2023/04/07 05:57:02;;;;;;;20.20;10.75;;;6.90;73.80;;;;;;5090828;28;20494;-68
2023/04/07 05:59:28;;;;;;;19.52;10.60;;;7.00;73.20;;;;;;5090944;28;20039;-68
2023/04/07 06:01:54;;;;;;;14.38;9.65;;;7.00;72.80;;;;;;5090893;28;20111;-68
2023/04/07 06:04:19;;;;;;;17.98;10.05;;;7.10;72.70;;;;;;5089762;28;20083;-67
2023/04/07 06:06:45;;;;;;;20.63;11.10;;;7.20;73.00;;;;;;5090916;28;20023;-70
2023/04/07 06:09:11;;;;;;;16.08;10.25;;;7.10;72.60;;;;;;5091060;28;20023;-68
2023/04/07 06:11:37;;;;;;;19.17;10.18;;;7.20;72.50;;;;;;5090357;28;20296;-70
2023/04/07 06:14:02;;;;;;;15.88;9.88;;;7.20;72.30;;;;;;5090630;28;20097;-68
2023/04/07 06:16:28;;;;;;;16.10;9.52;;;7.20;72.20;;;;;;5090492;28;20362;-68
2023/04/07 06:18:53;;;;;;;23.73;10.25;;;7.20;72.00;;;;;;5089550;28;20039;-68
2023/04/07 06:21:19;;;;;;;20.63;10.63;;;7.20;72.10;;;;;;5090917;28;20511;-67
2023/04/07 06:23:45;;;;;;;17.75;9.57;;;7.20;72.10;;;;;;5090410;28;20043;-69
2023/04/07 06:26:11;;;;;;;21.83;10.23;;;7.40;72.40;;;;;;5090298;28;20028;-69
2023/04/07 06:28:37;;;;;;;19.73;9.70;;;7.30;72.00;;;;;;5090404;28;20036;-68
2023/04/07 06:31:03;;;;;;;19.25;9.95;;;7.30;71.80;;;;;;5089321;28;20048;-69
2023/04/07 06:33:28;;;;;;;16.75;9.15;;;7.40;71.90;;;;;;5090978;28;20464;-68
2023/04/07 06:35:55;;;;;;;15.15;8.85;;;7.50;71.50;;;;;;5090440;28;20054;-68
2023/04/07 06:38:21;;;;;;;16.55;9.45;;;7.60;71.40;;;;;;5090409;28;20029;-69
2023/04/07 06:40:47;;;;;;;15.85;9.02;;;7.50;71.40;;;;;;5090329;28;20047;-68
2023/04/07 06:43:12;;;;;;;15.45;8.77;;;7.60;71.10;;;;;;5090613;28;20486;-69
2023/04/07 06:45:40;;;;;;;19.60;9.27;;;7.70;70.70;;;;;;5089734;28;20028;-69
2023/04/07 06:48:06;;;;;;;15.77;8.90;;;7.80;71.00;;;;;;5092747;28;20044;-69
2023/04/07 06:50:32;;;;;;;14.60;9.07;;;7.80;71.20;;;;;;5094367;28;20347;-71
2023/04/07 06:52:57;;;;;;;15.38;8.45;;;7.80;70.60;;;;;;5093025;28;20036;-69
2023/04/07 06:55:23;;;;;;;15.30;8.80;;;7.90;70.60;;;;;;5094342;28;20446;-69
2023/04/07 06:57:51;;;;;;;17.10;9.23;;;7.90;70.60;;;;;;5094298;28;20031;-68
2023/04/07 07:00:17;;;;;;;19.10;9.18;;;7.90;70.40;;;;;;5094651;28;20035;-69
2023/04/07 07:02:43;;;;;;;13.77;8.85;;;8.10;70.30;;;;;;5094462;28;20048;-69
2023/04/07 07:05:10;;;;;;;17.95;9.60;;;8.20;70.30;;;;;;5094100;28;20044;-71
2023/04/07 07:07:36;;;;;;;19.30;10.43;;;8.20;70.00;;;;;;5093094;28;20047;-69
2023/04/07 07:10:02;;;;;;;15.20;9.50;;;8.30;69.60;;;;;;5094266;28;20333;-69
2023/04/07 07:12:28;;;;;;;14.50;8.90;;;8.40;69.60;;;;;;5094362;28;20148;-68
2023/04/07 07:14:53;;;;;;;15.70;9.40;;;8.50;69.40;;;;;;5093877;28;20461;-69
2023/04/07 07:17:19;;;;;;;18.40;10.00;;;8.70;69.20;;;;;;5094163;28;20029;-68
2023/04/07 07:19:45;;;;;;;14.77;8.73;;;8.80;68.60;;;;;;5093866;28;20461;-68
2023/04/07 07:22:10;;;;;;;13.07;8.70;;;8.90;68.70;;;;;;5093937;28;20082;-67
2023/04/07 07:24:36;;;;;;;14.40;8.63;;;9.00;68.20;;;;;;5094085;28;20469;-68
2023/04/07 07:27:02;;;;;;;14.98;8.70;;;9.10;68.40;;;;;;5093775;28;20062;-68
2023/04/07 07:29:28;;;;;;;12.23;8.50;;;9.20;68.00;;;;;;5093535;28;20047;-64
2023/04/07 07:31:53;;;;;;;13.43;8.65;;;9.30;67.10;;;;;;5093448;28;20039;-66
2023/04/07 07:34:19;;;;;;;16.33;8.75;;;9.50;67.10;;;;;;5092304;28;20053;-65
2023/04/07 07:36:45;;;;;;;15.95;8.43;;;9.50;66.20;;;;;;5093384;28;20023;-67
2023/04/07 07:39:10;;;;;;;14.43;9.40;;;9.60;66.00;;;;;;5094259;28;20020;-67
2023/04/07 07:41:36;;;;;;;15.13;8.75;;;9.70;65.90;;;;;;5092711;28;20107;-68
2023/04/07 07:44:02;;;;;;;14.18;8.55;;;9.70;65.70;;;;;;5092377;28;20035;-68
2023/04/07 07:46:27;;;;;;;15.95;9.30;;;9.60;65.40;;;;;;5092156;28;20409;-68
2023/04/07 07:48:53;;;;;;;16.50;9.38;;;9.70;65.40;;;;;;5093094;28;20020;-69
2023/04/07 07:51:19;;;;;;;16.85;8.82;;;9.90;65.20;;;;;;5093659;28;20027;-67
2023/04/07 07:53:45;;;;;;;15.18;8.85;;;9.90;64.90;;;;;;5091933;28;20428;-68
2023/04/07 07:56:10;;;;;;;16.77;9.77;;;10.10;64.10;;;;;;5092567;28;20044;-67
2023/04/07 07:58:37;;;;;;;18.58;9.02;;;10.20;63.50;;;;;;5092462;28;20040;-68
2023/04/07 08:01:02;;;;;;;13.90;8.52;;;10.30;63.60;;;;;;5092850;28;20043;-68
2023/04/07 08:03:28;;;;;;;13.75;9.23;;;10.40;63.10;;;;;;5093192;28;20028;-67
2023/04/07 08:05:54;;;;;;;14.80;8.63;;;10.50;62.70;;;;;;5092689;28;20146;-69
2023/04/07 08:08:20;;;;;;;14.88;8.65;;;10.50;62.80;;;;;;5092570;28;20032;-69
2023/04/07 08:10:45;;;;;;;18.40;8.80;;;10.60;62.50;;;;;;5092723;28;20390;-67
2023/04/07 08:13:11;;;;;;;13.30;7.82;;;10.70;62.90;;;;;;5092564;28;20031;-70
2023/04/07 08:15:37;;;;;;;16.17;8.15;;;10.80;62.20;;;;;;5092954;28;20461;-68
2023/04/07 08:18:05;;;;;;;14.10;7.88;;;10.90;62.00;;;;;;5092548;28;20047;-69
2023/04/07 08:20:31;;;;;;;17.55;7.65;;;11.10;61.40;;;;;;5092415;28;20036;-68
2023/04/07 08:22:56;;;;;;;14.85;8.68;;;11.50;60.90;;;;;;5092298;28;20032;-69
2023/04/07 08:25:22;;;;;;;15.52;7.70;;;12.10;60.20;;;;;;5092278;28;20416;-74
2023/04/07 08:27:48;;;;;;;15.68;7.80;;;12.40;58.60;;;;;;5092879;28;20408;-67
2023/04/07 08:30:14;;;;;;;14.75;8.73;;;12.90;58.50;;;;;;5092496;28;20118;-68
2023/04/07 08:32:43;;;;;;;14.25;7.28;;;14.30;58.10;;;;;;5092238;28;20301;-68
2023/04/07 08:35:10;;;;;;;11.95;6.97;;;15.60;54.40;;;;;;5092165;28;20039;-67
2023/04/07 08:37:36;;;;;;;12.32;7.53;;;17.20;54.70;;;;;;5092311;28;20356;-68
2023/04/07 08:40:02;;;;;;;11.75;7.13;;;18.30;52.90;;;;;;5090878;28;20112;-70
2023/04/07 08:42:31;;;;;;;14.65;7.80;;;19.40;48.60;;;;;;5092646;28;20031;-69
2023/04/07 08:45:01;;;;;;;10.82;6.80;;;20.30;46.20;;;;;;5092307;28;20111;-70
2023/04/07 08:47:29;;;;;;;10.73;6.72;;;21.00;45.20;;;;;;5091026;28;20029;-69
2023/04/07 08:49:59;;;;;;;10.10;6.30;;;21.60;43.50;;;;;;5091705;28;20036;-67
2023/04/07 08:52:35;;;;;;;12.63;7.25;;;21.80;42.60;;;;;;5091855;28;20426;-69
2023/04/07 08:55:02;;;;;;;12.23;6.93;;;22.10;40.50;;;;;;5091702;28;20460;-69
2023/04/07 08:57:31;;;;;;;10.40;6.50;;;23.00;39.90;;;;;;5092411;28;20052;-73
2023/04/07 09:00:04;;;;;;;11.93;6.68;;;22.90;38.80;;;;;;5090710;28;20039;-70
2023/04/07 09:02:31;;;;;;;9.77;6.43;;;22.90;38.50;;;;;;5090451;28;20488;-71
2023/04/07 09:04:57;;;;;;;10.93;6.72;;;23.40;37.40;;;;;;5091611;28;20104;-68
2023/04/07 09:07:23;;;;;;;9.43;6.50;;;24.20;38.20;;;;;;5090709;28;20047;-69
2023/04/07 09:09:49;;;;;;;10.23;6.45;;;24.60;37.60;;;;;;5090770;28;20031;-70
2023/04/07 09:12:15;;;;;;;8.38;5.80;;;24.90;37.10;;;;;;5091803;28;20036;-70
2023/04/07 09:14:41;;;;;;;10.45;5.93;;;25.00;35.90;;;;;;5091307;28;20039;-70
2023/04/07 09:17:06;;;;;;;10.18;6.05;;;25.30;35.50;;;;;;5091304;28;20065;-68
2023/04/07 09:19:32;;;;;;;11.15;5.85;;;25.70;35.20;;;;;;5091435;28;20028;-69
2023/04/07 09:21:58;;;;;;;13.80;5.55;;;25.40;32.50;;;;;;5091152;28;20028;-71
2023/04/07 09:24:26;;;;;;;11.32;6.35;;;25.50;33.70;;;;;;5090607;28;20042;-72
2023/04/07 09:27:10;;;;;;;;;;;25.50;33.30;;;;;;5091436;28;20174;-72
2023/04/07 09:29:36;;;;;;;7.90;5.10;;;26.30;32.20;;;;;;5091072;28;19908;-72
2023/04/07 09:32:02;;;;;;;9.07;5.63;;;26.20;31.50;;;;;;5091409;28;20035;-72
2023/04/07 09:34:33;;;;;;;8.90;5.60;;;25.70;31.20;;;;;;5091373;28;20107;-71
2023/04/07 09:36:59;;;;;;;7.63;5.60;;;26.40;31.40;;;;;;5091184;28;20023;-70
2023/04/07 09:39:25;;;;;;;11.38;6.55;;;25.50;30.10;;;;;;5091654;28;20024;-71
2023/04/07 09:41:51;;;;;;;12.20;6.20;;;25.50;31.00;;;;;;5091005;28;20032;-70
2023/04/07 09:44:21;;;;;;;9.88;6.20;;;25.90;30.50;;;;;;5091027;28;20028;-72
2023/04/07 09:46:52;;;;;;;8.70;5.85;;;26.20;30.30;;;;;;5090254;28;20216;-73
2023/04/07 09:49:19;;;;;;;9.90;6.03;;;25.50;29.50;;;;;;5090913;28;20475;-69
2023/04/07 09:51:59;;;;;;;10.20;6.17;;;25.20;30.20;;;;;;5091215;28;20032;-70
2023/04/07 09:54:39;;;;;;;10.18;6.47;;;24.60;30.20;;;;;;5091247;28;20265;-69
2023/04/07 09:57:07;;;;;;;10.45;6.45;;;24.40;29.90;;;;;;5091020;28;20113;-69
2023/04/07 09:59:35;;;;;;;9.30;6.55;;;25.20;30.50;;;;;;5090504;28;20028;-69
2023/04/07 10:02:01;;;;;;;14.52;9.52;;;25.40;30.30;;;;;;5090927;28;20052;-69
2023/04/07 10:04:30;;;;;;;10.40;6.20;;;25.40;30.50;;;;;;5090791;28;20110;-70
2023/04/07 10:06:57;;;;;;;10.45;6.57;;;26.60;30.60;;;;;;5090814;28;20020;-71
2023/04/07 10:09:26;;;;;;;10.10;6.45;;;27.00;30.80;;;;;;5090133;28;20016;-69
2023/04/07 10:11:53;;;;;;;9.27;6.25;;;27.70;30.50;;;;;;5090736;28;20036;-69
2023/04/07 10:14:22;;;;;;;10.73;6.53;;;28.60;30.40;;;;;;5090858;28;20024;-69
2023/04/07 10:16:48;;;;;;;10.57;6.70;;;28.70;30.00;;;;;;5091145;28;20077;-70
2023/04/07 10:19:15;;;;;;;10.48;6.50;;;29.10;29.30;;;;;;5091139;28;20078;-69
2023/04/07 10:21:42;;;;;;;10.82;6.95;;;29.50;29.40;;;;;;5091570;28;20028;-69
2023/04/07 10:24:36;;;;;;;11.57;7.17;;;29.00;29.00;;;;;;5091245;28;20059;-70
2023/04/07 10:27:15;;;;;;;10.55;7.18;;;28.20;29.40;;;;;;5091006;28;20031;-71
2023/04/07 10:29:44;;;;;;;9.45;6.85;;;28.50;29.30;;;;;;5089209;28;20032;-70
2023/04/07 10:32:10;;;;;;;9.57;6.80;;;28.40;28.70;;;;;;5091432;28;20321;-71
2023/04/07 10:34:54;;;;;;;10.85;6.78;;;28.60;29.10;;;;;;5091321;28;20036;-70
2023/04/07 10:37:21;;;;;;;8.93;6.03;;;28.40;28.80;;;;;;5090650;28;20035;-69
2023/04/07 10:40:11;;;;;;;11.32;8.20;;;27.90;28.90;;;;;;5091770;28;20432;-68
2023/04/07 10:42:36;;;;;;;10.02;6.55;;;28.00;28.90;;;;;;5092486;28;20020;-70
2023/04/07 10:45:06;;;;;;;11.68;7.53;;;28.10;28.50;;;;;;5097198;28;20107;-70
2023/04/07 10:47:32;;;;;;;13.27;7.15;;;28.30;28.70;;;;;;5092397;28;20097;-70
2023/04/07 10:50:17;;;;;;;12.32;7.15;;;27.80;28.10;;;;;;5094550;28;20040;-70
2023/04/07 10:52:43;;;;;;;10.65;6.18;;;28.60;28.60;;;;;;5092411;28;20063;-71
2023/04/07 10:55:37;;;;;;;8.88;6.22;;;28.10;28.10;;;;;;5090639;28;20412;-71
2023/04/07 10:58:25;;;;;;;9.98;7.30;;;28.10;28.20;;;;;;5090282;28;20481;-69
2023/04/07 11:01:16;;;;;;;9.60;6.78;;;27.40;28.20;;;;;;5085755;28;20089;-71
2023/04/07 11:03:53;;;;;;;12.00;7.28;;;27.00;28.50;;;;;;5083202;28;20036;-69
2023/04/07 11:06:18;;;;;;;12.45;7.35;;;26.70;28.50;;;;;;5092266;28;20443;-70
2023/04/07 11:08:46;;;;;;;12.05;7.38;;;26.40;28.70;;;;;;5091175;28;20114;-69
2023/04/07 11:11:14;;;;;;;8.57;6.50;;;26.60;28.70;;;;;;5091458;28;20028;-71
2023/04/07 11:13:40;;;;;;;11.20;7.15;;;25.80;28.90;;;;;;5089686;28;20465;-69
2023/04/07 11:16:06;;;;;;;10.00;7.47;;;26.00;29.00;;;;;;5091580;28;20039;-70
2023/04/07 11:18:32;;;;;;;13.02;7.32;;;25.00;28.80;;;;;;5091870;28;20099;-70
2023/04/07 11:20:58;;;;;;;10.18;6.68;;;24.90;29.20;;;;;;5092614;28;20127;-70
2023/04/07 11:23:26;;;;;;;10.93;6.50;;;24.50;29.40;;;;;;5091924;28;20476;-70
2023/04/07 11:25:57;;;;;;;13.82;7.53;;;24.20;29.50;;;;;;5091356;28;20035;-69
2023/04/07 11:28:23;;;;;;;14.73;7.60;;;23.50;29.80;;;;;;5091115;28;20274;-71
2023/04/07 11:30:51;;;;;;;11.25;7.07;;;23.20;30.00;;;;;;5090496;28;20048;-70
2023/04/07 11:33:18;;;;;;;;;;;22.50;30.00;;;;;;5095694;28;20058;-71
2023/04/07 11:35:54;;;;;;;10.90;7.28;;;21.90;30.60;;;;;;5100351;28;19919;-69
2023/04/07 11:38:22;;;;;;;12.70;7.10;;;21.40;31.00;;;;;;5098238;28;20107;-68
2023/04/07 11:40:48;;;;;;;10.35;7.25;;;20.80;31.10;;;;;;5095525;28;20039;-69
2023/04/07 11:43:26;;;;;;;23.75;14.05;;;20.50;31.60;;;;;;5094272;28;20586;-69
2023/04/07 11:46:10;;;;;;;;;;;20.50;32.30;;;;;;5094996;28;20020;-70
2023/04/07 11:48:37;;;;;;;12.07;6.57;;;20.20;32.70;;;;;;5095043;28;19900;-68
2023/04/07 11:51:04;;;;;;;13.52;7.40;;;20.30;32.90;;;;;;5096495;28;20054;-69
2023/04/07 11:53:32;;;;;;;15.35;7.28;;;20.10;33.10;;;;;;5094500;28;20043;-70
2023/04/07 11:56:08;;;;;;;13.68;8.13;;;19.80;33.40;;;;;;5094381;28;20093;-70
2023/04/07 11:58:34;;;;;;;12.57;7.43;;;19.40;33.50;;;;;;5093932;28;20445;-70
2023/04/07 12:01:05;;;;;;;12.35;7.10;;;19.10;34.60;;;;;;5093931;28;20517;-70
2023/04/07 12:03:34;;;;;;;12.88;7.25;;;18.90;34.60;;;;;;5092635;28;20350;-70
2023/04/07 12:06:01;;;;;;;12.38;7.47;;;18.90;34.90;;;;;;5086868;28;20032;-69
2023/04/07 12:08:40;;;;;;;14.75;7.60;;;18.90;34.90;;;;;;5094183;28;20028;-70
2023/04/07 12:11:08;;;;;;;11.23;6.60;;;18.90;35.30;;;;;;5092723;28;20064;-70
2023/04/07 12:13:34;;;;;;;12.10;7.32;;;18.50;35.60;;;;;;5093884;28;20055;-70
2023/04/07 12:16:00;;;;;;;13.93;7.03;;;18.60;35.60;;;;;;5093947;28;20043;-70
2023/04/07 12:18:27;;;;;;;14.70;8.25;;;18.60;35.60;;;;;;5094822;28;20024;-70
2023/04/07 12:20:52;;;;;;;13.23;6.97;;;18.40;35.50;;;;;;5093376;28;20028;-70
2023/04/07 12:23:18;;;;;;;12.18;6.70;;;18.30;35.60;;;;;;5092416;28;20531;-69
2023/04/07 12:25:44;;;;;;;15.00;7.03;;;18.20;36.40;;;;;;5093623;28;20421;-67
2023/04/07 12:28:10;;;;;;;12.85;6.85;;;18.30;36.40;;;;;;5092361;28;20027;-69
2023/04/07 12:30:35;;;;;;;9.55;6.30;;;18.30;36.20;;;;;;5093675;28;20032;-66
2023/04/07 12:33:02;;;;;;;12.48;6.50;;;18.30;36.00;;;;;;5093617;28;20089;-68
2023/04/07 12:35:29;;;;;;;16.50;6.47;;;18.30;36.50;;;;;;5093251;28;20036;-69
2023/04/07 12:37:55;;;;;;;13.27;7.00;;;18.30;36.40;;;;;;5092344;28;20028;-69
2023/04/07 12:40:22;;;;;;;13.07;6.78;;;18.20;36.20;;;;;;5093732;28;20054;-68
2023/04/07 12:42:47;;;;;;;10.25;6.45;;;18.10;36.20;;;;;;5093254;28;20024;-68
2023/04/07 12:45:13;;;;;;;11.00;5.68;;;18.10;36.20;;;;;;5091962;28;20358;-68
2023/04/07 12:47:39;;;;;;;12.90;6.50;;;18.10;36.20;;;;;;5093229;28;20433;-68